createdAt,value
2018-03-22T00:01:02.204Z,99.90
2018-03-22T00:03:30.679Z,99.90
2018-03-22T00:05:59.124Z,99.90
2018-03-22T00:08:26.859Z,99.90
2018-03-22T00:10:54.501Z,99.90
2018-03-22T00:13:22.958Z,99.90
2018-03-22T00:15:51.408Z,99.90
2018-03-22T00:18:20.096Z,99.90
2018-03-22T00:20:47.797Z,99.90
2018-03-22T00:23:15.488Z,99.90
2018-03-22T00:25:43.162Z,99.90
2018-03-22T00:28:10.972Z,99.90
2018-03-22T00:30:38.641Z,99.90
2018-03-22T00:33:06.329Z,99.90
2018-03-22T00:35:34.056Z,99.90
2018-03-22T00:38:02.485Z,99.90
2018-03-22T00:40:31.264Z,99.90
2018-03-22T00:42:58.921Z,99.90
2018-03-22T00:45:27.628Z,99.90
2018-03-22T00:47:56.103Z,99.90
2018-03-22T00:50:23.789Z,99.90
2018-03-22T00:52:51.506Z,99.90
2018-03-22T00:55:19.552Z,99.90
2018-03-22T00:57:48.007Z,99.90
2018-03-22T01:00:15.716Z,99.90
2018-03-22T01:02:43.463Z,99.90
2018-03-22T01:05:11.130Z,99.90
2018-03-22T01:07:38.782Z,99.90
2018-03-22T01:10:07.665Z,99.90
2018-03-22T01:12:36.094Z,99.90
2018-03-22T01:15:03.834Z,99.90
2018-03-22T01:17:32.527Z,99.90
2018-03-22T01:20:00.180Z,99.90
2018-03-22T01:22:28.140Z,99.90
2018-03-22T01:24:55.828Z,99.90
2018-03-22T01:27:23.554Z,99.90
2018-03-22T01:29:52.065Z,99.90
2018-03-22T01:32:19.825Z,99.90
2018-03-22T01:34:49.234Z,99.90
2018-03-22T01:37:17.010Z,99.90
2018-03-22T01:39:44.672Z,99.90
2018-03-22T01:42:12.390Z,99.90
2018-03-22T01:44:40.048Z,99.90
2018-03-22T01:47:07.685Z,99.90
2018-03-22T01:49:35.398Z,99.90
2018-03-22T01:52:03.124Z,99.90
2018-03-22T01:54:30.893Z,99.90
2018-03-22T01:56:58.564Z,99.90
2018-03-22T01:59:26.273Z,99.90
2018-03-22T02:01:53.960Z,99.90
2018-03-22T02:04:21.717Z,99.90
2018-03-22T02:06:49.421Z,99.90
2018-03-22T02:09:17.093Z,99.90
2018-03-22T02:11:44.787Z,99.90
2018-03-22T02:14:12.476Z,99.90
2018-03-22T02:16:40.217Z,99.90
2018-03-22T02:19:08.684Z,99.90
2018-03-22T02:21:36.391Z,99.90
2018-03-22T02:24:04.032Z,99.90
2018-03-22T02:26:31.716Z,99.90
2018-03-22T02:28:59.372Z,99.90
2018-03-22T02:31:27.061Z,99.90
2018-03-22T02:33:54.739Z,99.90
2018-03-22T02:36:23.197Z,99.90
2018-03-22T02:38:50.856Z,99.90
2018-03-22T02:41:18.544Z,99.90
2018-03-22T02:43:46.272Z,99.90
2018-03-22T02:46:13.905Z,99.90
2018-03-22T02:48:41.565Z,99.90
2018-03-22T02:51:09.277Z,99.90
2018-03-22T02:53:36.912Z,99.90
2018-03-22T02:56:04.588Z,99.90
2018-03-22T02:58:32.323Z,99.90
2018-03-22T03:01:00.042Z,99.90
2018-03-22T03:03:28.502Z,99.90
2018-03-22T03:05:56.180Z,99.90
2018-03-22T03:08:24.591Z,99.90
2018-03-22T03:10:52.264Z,99.90
2018-03-22T03:13:19.971Z,99.90
2018-03-22T03:15:47.612Z,99.90
2018-03-22T03:18:15.283Z,99.90
2018-03-22T03:20:42.949Z,99.90
2018-03-22T03:23:10.619Z,99.90
2018-03-22T03:25:39.039Z,99.90
2018-03-22T03:28:06.709Z,99.90
2018-03-22T03:30:34.593Z,99.90
2018-03-22T03:33:02.272Z,99.90
2018-03-22T03:35:29.966Z,99.90
2018-03-22T03:37:57.716Z,99.90
2018-03-22T03:40:25.415Z,99.90
2018-03-22T03:42:53.100Z,99.90
2018-03-22T03:45:20.735Z,99.90
2018-03-22T03:47:48.432Z,99.90
2018-03-22T03:50:16.131Z,99.90
2018-03-22T03:52:43.863Z,99.90
2018-03-22T03:55:12.352Z,99.90
2018-03-22T03:57:40.804Z,99.90
2018-03-22T04:00:08.458Z,99.90
2018-03-22T04:02:36.244Z,99.90
2018-03-22T04:05:04.747Z,99.90
2018-03-22T04:07:33.245Z,99.90
2018-03-22T04:10:00.928Z,99.90
2018-03-22T04:12:28.633Z,99.90
2018-03-22T04:14:57.081Z,99.90
2018-03-22T04:17:24.787Z,99.90
2018-03-22T04:19:52.497Z,99.90
2018-03-22T04:22:20.138Z,99.90
2018-03-22T04:24:47.960Z,99.90
2018-03-22T04:27:16.424Z,99.90
2018-03-22T04:29:44.141Z,99.90
2018-03-22T04:32:11.825Z,99.90
2018-03-22T04:34:39.558Z,99.90
2018-03-22T04:37:07.221Z,99.90
2018-03-22T04:39:34.914Z,99.90
2018-03-22T04:42:02.692Z,99.90
2018-03-22T04:44:30.346Z,99.90
2018-03-22T04:46:58.039Z,99.90
2018-03-22T04:49:25.752Z,99.90
2018-03-22T04:51:53.428Z,99.90
2018-03-22T04:54:21.161Z,99.90
2018-03-22T04:56:48.874Z,99.90
2018-03-22T04:59:17.329Z,99.90
2018-03-22T05:01:45.060Z,99.90
2018-03-22T05:04:12.769Z,99.90
2018-03-22T05:06:41.555Z,99.90
2018-03-22T05:09:09.296Z,99.90
2018-03-22T05:11:37.046Z,99.90
2018-03-22T05:14:04.744Z,99.90
2018-03-22T05:16:33.316Z,99.90
2018-03-22T05:19:01.002Z,99.90
2018-03-22T05:21:28.665Z,99.90
2018-03-22T05:23:56.345Z,99.90
2018-03-22T05:26:24.042Z,99.90
2018-03-22T05:28:51.750Z,99.90
2018-03-22T05:31:20.227Z,99.90
2018-03-22T05:33:48.677Z,99.90
2018-03-22T05:36:16.359Z,99.90
2018-03-22T05:38:44.087Z,99.90
2018-03-22T05:41:11.785Z,99.90
2018-03-22T05:43:40.174Z,99.90
2018-03-22T05:46:09.924Z,99.90
2018-03-22T05:48:37.613Z,99.90
2018-03-22T05:51:05.339Z,99.90
2018-03-22T05:53:33.943Z,99.90
2018-03-22T05:56:01.665Z,99.90
2018-03-22T05:58:29.449Z,99.90
2018-03-22T06:00:57.222Z,99.90
2018-03-22T06:03:24.950Z,99.90
2018-03-22T06:05:52.621Z,99.90
2018-03-22T06:08:20.313Z,99.90
2018-03-22T06:10:48.012Z,99.90
2018-03-22T06:13:15.700Z,99.90
2018-03-22T06:15:43.359Z,99.90
2018-03-22T06:18:11.017Z,99.90
2018-03-22T06:20:38.904Z,99.90
2018-03-22T06:23:06.608Z,99.90
2018-03-22T06:25:35.060Z,99.90
2018-03-22T06:28:02.723Z,99.90
2018-03-22T06:30:30.425Z,99.90
2018-03-22T06:32:58.142Z,99.90
2018-03-22T06:35:25.823Z,99.90
2018-03-22T06:37:53.517Z,99.90
2018-03-22T06:40:21.196Z,99.90
2018-03-22T06:42:48.845Z,99.90
2018-03-22T06:45:16.575Z,99.90
2018-03-22T06:47:45.028Z,99.90
2018-03-22T06:50:13.475Z,99.90
2018-03-22T06:52:41.195Z,99.90
2018-03-22T06:55:09.660Z,99.90
2018-03-22T06:57:37.366Z,99.90
2018-03-22T07:00:05.122Z,99.90
2018-03-22T07:02:32.886Z,99.90
2018-03-22T07:05:00.532Z,99.90
2018-03-22T07:07:28.976Z,99.90
2018-03-22T07:09:56.652Z,99.90
2018-03-22T07:12:25.108Z,99.90
2018-03-22T07:14:52.824Z,99.90
2018-03-22T07:17:20.525Z,99.90
2018-03-22T07:19:48.246Z,98.90
2018-03-22T07:22:15.961Z,95.90
2018-03-22T07:24:43.692Z,95.20
2018-03-22T07:27:11.356Z,99.70
2018-03-22T07:29:39.059Z,99.10
2018-03-22T07:32:06.715Z,97.90
2018-03-22T07:34:34.376Z,96.70
2018-03-22T07:37:02.924Z,97.50
2018-03-22T07:39:30.599Z,97.50
2018-03-22T07:41:58.261Z,96.60
2018-03-22T07:44:31.757Z,94.20
2018-03-22T07:46:59.538Z,94.80
2018-03-22T07:49:27.207Z,93.40
2018-03-22T07:51:55.677Z,92.80
2018-03-22T07:54:24.851Z,89.90
2018-03-22T07:56:52.489Z,89.90
2018-03-22T07:59:20.936Z,86.60
2018-03-22T08:01:48.616Z,86.70
2018-03-22T08:04:16.308Z,82.80
2018-03-22T08:06:44.092Z,86.90
2018-03-22T08:09:11.800Z,85.40
2018-03-22T08:11:39.470Z,82.80
2018-03-22T08:14:07.256Z,87.70
2018-03-22T08:16:34.964Z,78.90
2018-03-22T08:19:02.629Z,75.00
2018-03-22T08:21:30.317Z,76.60
2018-03-22T08:23:58.015Z,72.00
2018-03-22T08:26:25.684Z,73.90
2018-03-22T08:28:53.421Z,72.20
2018-03-22T08:31:21.134Z,71.90
2018-03-22T08:33:48.812Z,75.60
2018-03-22T08:36:16.527Z,76.20
2018-03-22T08:38:44.212Z,71.30
2018-03-22T08:41:11.988Z,71.90
2018-03-22T08:43:40.420Z,69.80
2018-03-22T08:46:08.153Z,69.70
2018-03-22T08:48:36.581Z,69.30
2018-03-22T08:51:05.118Z,71.50
2018-03-22T08:53:32.919Z,71.50
2018-03-22T08:56:00.599Z,73.10
2018-03-22T08:58:28.308Z,72.70
2018-03-22T09:00:56.032Z,75.80
2018-03-22T09:03:23.752Z,71.70
2018-03-22T09:05:51.516Z,70.60
2018-03-22T09:08:19.251Z,65.20
2018-03-22T09:10:47.526Z,66.30
2018-03-22T09:13:15.258Z,67.60
2018-03-22T09:15:42.955Z,64.00
2018-03-22T09:18:10.644Z,64.50
2018-03-22T09:20:38.320Z,65.60
2018-03-22T09:23:06.888Z,63.80
2018-03-22T09:25:35.345Z,64.50
2018-03-22T09:28:03.029Z,64.50
2018-03-22T09:30:31.499Z,62.70
2018-03-22T09:32:59.368Z,62.60
2018-03-22T09:35:27.077Z,63.60
2018-03-22T09:37:54.776Z,63.30
2018-03-22T09:40:22.524Z,64.30
2018-03-22T09:42:51.247Z,61.40
2018-03-22T09:45:19.008Z,62.10
2018-03-22T09:47:47.415Z,63.80
2018-03-22T09:50:15.166Z,63.60
2018-03-22T09:52:43.659Z,58.80
2018-03-22T09:55:11.351Z,58.90
2018-03-22T09:57:39.061Z,59.10
2018-03-22T10:00:07.524Z,58.40
2018-03-22T10:02:35.212Z,58.30
2018-03-22T10:05:02.969Z,56.50
2018-03-22T10:07:30.641Z,55.00
2018-03-22T10:09:58.291Z,56.30
2018-03-22T10:12:25.964Z,54.30
2018-03-22T10:14:53.632Z,54.20
2018-03-22T10:17:21.342Z,53.90
2018-03-22T10:19:49.025Z,54.70
2018-03-22T10:22:17.476Z,53.00
2018-03-22T10:24:45.107Z,53.00
2018-03-22T10:27:12.804Z,50.10
2018-03-22T10:29:40.507Z,50.20
2018-03-22T10:32:08.239Z,50.90
2018-03-22T10:34:35.923Z,52.10
2018-03-22T10:37:03.631Z,49.70
2018-03-22T10:39:31.316Z,50.80
2018-03-22T10:41:59.768Z,49.30
2018-03-22T10:44:27.469Z,49.20
2018-03-22T10:46:55.950Z,48.70
2018-03-22T10:49:24.441Z,48.50
2018-03-22T10:51:52.143Z,48.50
2018-03-22T10:54:19.852Z,47.70
2018-03-22T10:56:48.287Z,50.20
2018-03-22T10:59:15.968Z,50.20
2018-03-22T11:01:49.409Z,48.30
2018-03-22T11:04:17.168Z,49.90
2018-03-22T11:06:44.840Z,48.10
2018-03-22T11:09:12.619Z,47.60
2018-03-22T11:11:40.312Z,49.00
2018-03-22T11:14:07.988Z,48.70
2018-03-22T11:16:38.007Z,46.40
2018-03-22T11:19:05.708Z,46.40
2018-03-22T11:21:33.399Z,48.10
2018-03-22T11:24:01.152Z,48.00
2018-03-22T11:26:28.843Z,48.40
2018-03-22T11:28:57.284Z,47.20
2018-03-22T11:31:25.042Z,47.20
2018-03-22T11:33:52.727Z,47.50
2018-03-22T11:36:20.391Z,47.70
2018-03-22T11:38:48.104Z,49.20
2018-03-22T11:41:15.798Z,49.10
2018-03-22T11:43:43.510Z,49.00
2018-03-22T11:46:11.235Z,49.30
2018-03-22T11:48:38.976Z,49.20
2018-03-22T11:51:06.659Z,47.30
2018-03-22T11:53:34.475Z,48.90
2018-03-22T11:56:02.172Z,47.60
2018-03-22T11:58:33.148Z,47.80
2018-03-22T12:01:02.855Z,45.30
2018-03-22T12:03:30.570Z,45.30
2018-03-22T12:05:58.237Z,45.00
2018-03-22T12:08:26.024Z,46.80
2018-03-22T12:10:53.784Z,46.60
2018-03-22T12:13:21.407Z,47.20
2018-03-22T12:15:49.085Z,45.90
2018-03-22T12:18:16.832Z,46.10
2018-03-22T12:20:45.349Z,48.20
2018-03-22T12:23:13.085Z,48.20
2018-03-22T12:25:40.769Z,48.30
2018-03-22T12:28:09.253Z,47.50
2018-03-22T12:30:37.786Z,47.20
2018-03-22T12:33:05.473Z,47.20
2018-03-22T12:35:33.152Z,46.40
2018-03-22T12:38:00.904Z,47.10
2018-03-22T12:40:28.605Z,47.40
2018-03-22T12:42:56.271Z,46.10
2018-03-22T12:45:23.968Z,46.20
2018-03-22T12:47:51.657Z,46.70
2018-03-22T12:50:20.047Z,46.40
2018-03-22T12:52:48.477Z,45.00
2018-03-22T12:55:16.151Z,44.90
2018-03-22T12:57:43.849Z,43.90
2018-03-22T13:00:11.588Z,41.30
2018-03-22T13:02:39.321Z,39.70
2018-03-22T13:05:07.023Z,41.00
2018-03-22T13:07:34.720Z,40.60
2018-03-22T13:10:02.429Z,40.80
2018-03-22T13:12:30.107Z,40.80
2018-03-22T13:14:58.587Z,41.70
2018-03-22T13:17:27.030Z,40.70
2018-03-22T13:19:54.732Z,40.80
2018-03-22T13:22:23.280Z,39.70
2018-03-22T13:24:50.951Z,39.70
2018-03-22T13:27:18.625Z,38.70
2018-03-22T13:29:47.100Z,40.50
2018-03-22T13:32:14.785Z,40.50
2018-03-22T13:34:42.466Z,38.90
2018-03-22T13:37:10.180Z,39.70
2018-03-22T13:39:37.870Z,40.00
2018-03-22T13:42:05.559Z,40.90
2018-03-22T13:44:33.307Z,40.90
2018-03-22T13:47:00.979Z,40.60
2018-03-22T13:49:28.660Z,39.40
2018-03-22T13:51:56.361Z,41.00
2018-03-22T13:54:24.824Z,42.70
2018-03-22T13:56:52.450Z,43.00
2018-03-22T13:59:20.175Z,42.30
2018-03-22T14:01:47.896Z,41.70
2018-03-22T14:04:15.538Z,41.50
2018-03-22T14:06:43.208Z,41.90
2018-03-22T14:09:10.909Z,42.20
2018-03-22T14:11:38.589Z,43.10
2018-03-22T14:14:06.297Z,43.20
2018-03-22T14:16:33.998Z,43.10
2018-03-22T14:19:01.627Z,42.30
2018-03-22T14:21:29.309Z,43.00
2018-03-22T14:23:57.757Z,42.50
2018-03-22T14:26:25.430Z,42.50
2018-03-22T14:28:53.163Z,43.70
2018-03-22T14:31:20.865Z,43.60
2018-03-22T14:33:49.256Z,45.20
2018-03-22T14:36:17.698Z,44.20
2018-03-22T14:38:45.448Z,44.20
2018-03-22T14:41:13.065Z,43.40
2018-03-22T14:43:40.739Z,44.20
2018-03-22T14:46:08.402Z,44.90
2018-03-22T14:48:36.056Z,44.40
2018-03-22T14:51:03.787Z,44.80
2018-03-22T14:53:32.272Z,45.30
2018-03-22T14:56:00.690Z,44.90
2018-03-22T14:58:28.364Z,44.90
2018-03-22T15:00:56.032Z,45.60
2018-03-22T15:03:23.684Z,44.60
2018-03-22T15:05:51.380Z,44.60
2018-03-22T15:08:19.840Z,45.50
2018-03-22T15:10:47.487Z,45.50
2018-03-22T15:13:15.163Z,45.10
2018-03-22T15:15:42.824Z,43.70
2018-03-22T15:18:10.475Z,44.00
2018-03-22T15:20:38.140Z,44.00
2018-03-22T15:23:05.816Z,44.70
2018-03-22T15:25:34.228Z,45.40
2018-03-22T15:28:01.894Z,45.40
2018-03-22T15:30:29.640Z,45.20
2018-03-22T15:32:57.272Z,46.60
2018-03-22T15:35:24.949Z,46.00
2018-03-22T15:37:53.412Z,45.70
2018-03-22T15:40:21.113Z,45.70
2018-03-22T15:42:48.804Z,45.70
2018-03-22T15:45:16.495Z,45.80
2018-03-22T15:47:44.223Z,47.00
2018-03-22T15:50:11.870Z,46.70
2018-03-22T15:52:40.386Z,46.60
2018-03-22T15:55:08.050Z,46.50
2018-03-22T15:57:36.552Z,48.10
2018-03-22T16:00:05.069Z,47.70
2018-03-22T16:02:32.814Z,47.70
2018-03-22T16:05:00.461Z,48.90
2018-03-22T16:07:28.992Z,49.50
2018-03-22T16:09:56.673Z,49.40
2018-03-22T16:12:24.366Z,51.20
2018-03-22T16:14:52.811Z,52.30
2018-03-22T16:17:20.524Z,52.30
2018-03-22T16:19:48.210Z,52.90
2018-03-22T16:22:15.893Z,53.80
2018-03-22T16:24:43.547Z,54.30
2018-03-22T16:27:11.208Z,54.80
2018-03-22T16:29:38.909Z,56.80
2018-03-22T16:32:06.608Z,67.30
2018-03-22T16:34:34.276Z,81.90
2018-03-22T16:37:01.956Z,96.40
2018-03-22T16:39:29.603Z,99.90
2018-03-22T16:41:57.313Z,99.90
2018-03-22T16:44:25.791Z,99.90
2018-03-22T16:46:53.430Z,99.90
2018-03-22T16:49:21.116Z,99.90
2018-03-22T16:51:48.793Z,99.90
2018-03-22T16:54:17.224Z,99.90
2018-03-22T16:56:44.922Z,99.90
2018-03-22T16:59:12.660Z,99.90
2018-03-22T17:01:41.072Z,99.90
2018-03-22T17:04:08.739Z,99.90
2018-03-22T17:06:36.424Z,99.90
2018-03-22T17:09:04.162Z,99.90
2018-03-22T17:11:31.856Z,99.90
2018-03-22T17:14:00.322Z,99.90
2018-03-22T17:16:27.996Z,99.90
2018-03-22T17:18:55.669Z,99.90
2018-03-22T17:21:23.342Z,99.90
2018-03-22T17:23:51.745Z,99.90
2018-03-22T17:26:19.885Z,99.90
2018-03-22T17:28:48.507Z,99.90
2018-03-22T17:31:17.432Z,99.90
2018-03-22T17:33:47.182Z,99.90
2018-03-22T17:36:15.655Z,99.90
2018-03-22T17:38:45.354Z,99.90
2018-03-22T17:41:13.623Z,99.90
2018-03-22T17:43:42.173Z,99.90
2018-03-22T17:46:10.161Z,99.90
2018-03-22T17:48:39.183Z,99.90
2018-03-22T17:51:07.291Z,99.90
2018-03-22T17:53:36.394Z,99.90
2018-03-22T17:56:04.910Z,99.90
2018-03-22T17:58:33.835Z,99.90
2018-03-22T18:03:35.450Z,99.90
2018-03-22T18:06:04.173Z,99.90
2018-03-22T18:08:32.790Z,99.90
2018-03-22T18:11:01.270Z,99.90
2018-03-22T18:13:29.816Z,99.90
2018-03-22T18:15:59.180Z,99.90
2018-03-22T18:18:32.430Z,99.90
2018-03-22T18:21:00.649Z,99.90
2018-03-22T18:23:29.212Z,99.90
2018-03-22T18:25:57.772Z,99.90
2018-03-22T18:28:26.060Z,99.90
2018-03-22T18:30:54.350Z,99.90
2018-03-22T18:33:23.876Z,99.90
2018-03-22T18:35:52.616Z,99.90
2018-03-22T18:38:21.191Z,99.90
2018-03-22T18:40:49.799Z,99.90
2018-03-22T18:43:18.172Z,99.90
2018-03-22T18:45:54.462Z,99.90
2018-03-22T18:48:23.159Z,99.90
2018-03-22T18:50:51.812Z,99.90
2018-03-22T18:53:21.004Z,99.90
2018-03-22T18:55:49.358Z,99.90
2018-03-22T18:58:17.719Z,99.90
2018-03-22T19:00:45.868Z,99.90
2018-03-22T19:03:14.045Z,99.90
2018-03-22T19:05:43.285Z,99.90
2018-03-22T19:08:11.559Z,99.90
2018-03-22T19:10:40.062Z,99.90
2018-03-22T19:13:08.140Z,99.90
2018-03-22T19:15:38.056Z,99.90
2018-03-22T19:18:05.980Z,99.90
2018-03-22T19:20:34.545Z,99.90
2018-03-22T19:23:02.828Z,99.90
2018-03-22T19:25:31.174Z,99.90
2018-03-22T19:27:59.176Z,99.90
2018-03-22T19:30:27.270Z,99.90
2018-03-22T19:32:55.441Z,99.90
2018-03-22T19:35:24.148Z,99.90
2018-03-22T19:37:53.478Z,99.90
2018-03-22T19:40:22.491Z,99.90
2018-03-22T19:42:50.866Z,99.90
2018-03-22T19:45:19.325Z,99.90
2018-03-22T19:47:47.540Z,99.90
2018-03-22T19:50:16.236Z,99.90
2018-03-22T19:52:44.410Z,99.90
2018-03-22T19:55:12.766Z,99.90
2018-03-22T19:57:41.322Z,99.90
2018-03-22T20:00:10.354Z,99.90
2018-03-22T20:02:38.763Z,99.90
2018-03-22T20:05:07.420Z,99.90
2018-03-22T20:07:35.508Z,99.90
2018-03-22T20:10:05.259Z,99.90
2018-03-22T20:12:33.600Z,99.90
2018-03-22T20:15:02.776Z,99.90
2018-03-22T20:17:31.512Z,99.90
2018-03-22T20:19:59.224Z,99.90
2018-03-22T20:22:26.903Z,99.90
2018-03-22T20:24:55.349Z,99.90
2018-03-22T20:27:23.030Z,99.90
2018-03-22T20:29:50.729Z,99.90
2018-03-22T20:32:18.395Z,99.90
2018-03-22T20:34:46.316Z,99.90
2018-03-22T20:37:14.987Z,99.90
2018-03-22T20:39:42.665Z,99.90
2018-03-22T20:42:10.348Z,99.90
2018-03-22T20:44:38.805Z,99.90
2018-03-22T20:47:06.899Z,99.90
2018-03-22T20:49:34.630Z,99.90
2018-03-22T20:52:02.304Z,99.90
2018-03-22T20:54:30.740Z,99.90
2018-03-22T20:56:58.898Z,99.90
2018-03-22T20:59:27.160Z,99.90
2018-03-22T21:01:54.812Z,99.90
2018-03-22T21:04:22.520Z,99.90
2018-03-22T21:06:50.210Z,99.90
2018-03-22T21:09:17.982Z,99.90
2018-03-22T21:11:45.910Z,99.90
2018-03-22T21:14:13.784Z,99.90
2018-03-22T21:16:41.557Z,99.90
2018-03-22T21:19:09.370Z,99.90
2018-03-22T21:21:37.116Z,99.90
2018-03-22T21:24:04.851Z,99.90
2018-03-22T21:26:33.408Z,99.90
2018-03-22T21:29:01.144Z,99.90
2018-03-22T21:31:28.796Z,99.90
2018-03-22T21:33:56.556Z,99.90
2018-03-22T21:36:24.296Z,99.90
2018-03-22T21:38:52.719Z,99.90
2018-03-22T21:41:20.431Z,99.90
2018-03-22T21:44:00.624Z,99.90
2018-03-22T21:46:28.373Z,99.90
2018-03-22T21:48:56.175Z,99.90
2018-03-22T21:51:23.862Z,99.90
2018-03-22T21:53:51.705Z,99.90
2018-03-22T21:56:19.623Z,99.90
2018-03-22T21:58:47.499Z,99.90
2018-03-22T22:01:15.457Z,99.90
2018-03-22T22:03:44.073Z,99.90
2018-03-22T22:06:13.091Z,99.90
2018-03-22T22:08:40.800Z,99.90
2018-03-22T22:11:08.521Z,99.90
2018-03-22T22:13:36.962Z,99.90
2018-03-22T22:16:04.725Z,99.90
2018-03-22T22:18:32.491Z,99.90
2018-03-22T22:21:00.250Z,99.90
2018-03-22T22:23:28.047Z,99.90
2018-03-22T22:25:56.613Z,99.90
2018-03-22T22:28:24.358Z,99.90
2018-03-22T22:30:52.276Z,99.90
2018-03-22T22:33:19.985Z,99.90
2018-03-22T22:35:47.686Z,99.90
2018-03-22T22:38:16.137Z,99.90
2018-03-22T22:40:43.807Z,99.90
2018-03-22T22:43:11.460Z,99.90
2018-03-22T22:45:39.148Z,99.90
2018-03-22T22:48:07.609Z,99.90
2018-03-22T22:50:35.286Z,99.90
2018-03-22T22:53:03.800Z,99.90
2018-03-22T22:55:31.478Z,99.90
2018-03-22T22:57:59.144Z,99.90
2018-03-22T23:00:27.216Z,99.90
2018-03-22T23:02:55.180Z,99.90
2018-03-22T23:05:22.942Z,99.90
2018-03-22T23:07:50.875Z,99.90
2018-03-22T23:10:18.731Z,99.90
2018-03-22T23:12:47.259Z,99.90
2018-03-22T23:15:15.070Z,99.90
2018-03-22T23:17:43.648Z,99.90
2018-03-22T23:20:12.107Z,99.90
2018-03-22T23:22:40.653Z,99.90
2018-03-22T23:25:08.436Z,99.90
2018-03-22T23:27:36.111Z,99.90
2018-03-22T23:30:04.083Z,99.90
2018-03-22T23:32:31.923Z,99.90
2018-03-22T23:34:59.638Z,99.90
2018-03-22T23:37:27.459Z,99.90
2018-03-22T23:39:55.302Z,99.90
2018-03-22T23:42:23.879Z,99.90
2018-03-22T23:44:51.648Z,99.90
2018-03-22T23:47:19.523Z,99.90
2018-03-22T23:49:47.313Z,99.90
2018-03-22T23:52:15.803Z,99.90
2018-03-22T23:54:44.308Z,99.90
2018-03-22T23:57:11.976Z,99.90
2018-03-22T23:59:39.663Z,99.90
